sensor_id;sensor_type;location;lat;lon;timestamp;P1;durP1;ratioP1;P2;durP2;ratioP2
3922;SDS011;1976;51.694;6.256;2024-01-30T00:02:15;13.50;;;7.37;;
3922;SDS011;1976;51.694;6.256;2024-01-30T00:04:41;10.00;;;6.73;;
3922;SDS011;1976;51.694;6.256;2024-01-30T00:07:07;11.93;;;7.30;;
3922;SDS011;1976;51.694;6.256;2024-01-30T00:09:33;11.30;;;7.10;;
3922;SDS011;1976;51.694;6.256;2024-01-30T00:11:58;13.10;;;7.50;;
3922;SDS011;1976;51.694;6.256;2024-01-30T00:14:24;11.20;;;7.13;;
3922;SDS011;1976;51.694;6.256;2024-01-30T00:16:50;18.93;;;8.03;;
3922;SDS011;1976;51.694;6.256;2024-01-30T00:19:16;9.23;;;6.50;;
3922;SDS011;1976;51.694;6.256;2024-01-30T00:21:42;12.00;;;8.20;;
3922;SDS011;1976;51.694;6.256;2024-01-30T00:24:08;13.43;;;7.30;;
3922;SDS011;1976;51.694;6.256;2024-01-30T00:26:33;8.87;;;6.30;;
3922;SDS011;1976;51.694;6.256;2024-01-30T00:28:59;11.50;;;7.30;;
3922;SDS011;1976;51.694;6.256;2024-01-30T00:31:25;11.83;;;7.67;;
3922;SDS011;1976;51.694;6.256;2024-01-30T00:33:51;12.53;;;7.90;;
3922;SDS011;1976;51.694;6.256;2024-01-30T00:36:16;14.20;;;8.83;;
3922;SDS011;1976;51.694;6.256;2024-01-30T00:38:42;12.80;;;7.70;;
3922;SDS011;1976;51.694;6.256;2024-01-30T00:41:08;18.13;;;8.23;;
3922;SDS011;1976;51.694;6.256;2024-01-30T00:43:34;11.53;;;7.50;;
3922;SDS011;1976;51.694;6.256;2024-01-30T00:46:00;9.50;;;7.47;;
3922;SDS011;1976;51.694;6.256;2024-01-30T00:48:26;10.90;;;7.13;;
3922;SDS011;1976;51.694;6.256;2024-01-30T00:50:51;11.17;;;7.90;;
3922;SDS011;1976;51.694;6.256;2024-01-30T00:53:17;20.60;;;9.30;;
3922;SDS011;1976;51.694;6.256;2024-01-30T00:55:43;18.07;;;8.00;;
3922;SDS011;1976;51.694;6.256;2024-01-30T00:58:08;9.23;;;6.30;;
3922;SDS011;1976;51.694;6.256;2024-01-30T01:00:34;7.23;;;5.03;;
3922;SDS011;1976;51.694;6.256;2024-01-30T01:02:59;12.10;;;7.20;;
3922;SDS011;1976;51.694;6.256;2024-01-30T01:05:25;10.73;;;7.40;;
3922;SDS011;1976;51.694;6.256;2024-01-30T01:07:51;20.17;;;6.37;;
3922;SDS011;1976;51.694;6.256;2024-01-30T01:10:17;17.10;;;7.00;;
3922;SDS011;1976;51.694;6.256;2024-01-30T01:12:43;10.50;;;6.60;;
3922;SDS011;1976;51.694;6.256;2024-01-30T01:15:09;24.83;;;8.37;;
3922;SDS011;1976;51.694;6.256;2024-01-30T01:17:35;23.00;;;8.53;;
3922;SDS011;1976;51.694;6.256;2024-01-30T01:20:05;21.33;;;7.60;;
3922;SDS011;1976;51.694;6.256;2024-01-30T01:22:31;7.90;;;6.50;;
3922;SDS011;1976;51.694;6.256;2024-01-30T01:24:57;11.93;;;7.90;;
3922;SDS011;1976;51.694;6.256;2024-01-30T01:27:24;11.37;;;7.37;;
3922;SDS011;1976;51.694;6.256;2024-01-30T01:29:49;14.00;;;8.80;;
3922;SDS011;1976;51.694;6.256;2024-01-30T01:32:15;18.53;;;7.40;;
3922;SDS011;1976;51.694;6.256;2024-01-30T01:34:41;9.53;;;6.50;;
3922;SDS011;1976;51.694;6.256;2024-01-30T01:37:06;9.80;;;6.90;;
3922;SDS011;1976;51.694;6.256;2024-01-30T01:39:32;20.10;;;6.50;;
3922;SDS011;1976;51.694;6.256;2024-01-30T01:41:58;10.03;;;5.67;;
3922;SDS011;1976;51.694;6.256;2024-01-30T01:44:23;10.97;;;4.70;;
3922;SDS011;1976;51.694;6.256;2024-01-30T01:46:49;6.80;;;4.73;;
3922;SDS011;1976;51.694;6.256;2024-01-30T01:49:16;12.37;;;4.97;;
3922;SDS011;1976;51.694;6.256;2024-01-30T01:51:42;6.50;;;4.50;;
3922;SDS011;1976;51.694;6.256;2024-01-30T01:54:10;9.93;;;5.57;;
3922;SDS011;1976;51.694;6.256;2024-01-30T01:56:36;7.03;;;4.10;;
3922;SDS011;1976;51.694;6.256;2024-01-30T01:59:07;11.70;;;7.10;;
3922;SDS011;1976;51.694;6.256;2024-01-30T02:01:33;16.17;;;8.77;;
3922;SDS011;1976;51.694;6.256;2024-01-30T02:04:01;7.53;;;4.93;;
3922;SDS011;1976;51.694;6.256;2024-01-30T02:06:27;6.30;;;3.90;;
3922;SDS011;1976;51.694;6.256;2024-01-30T02:08:53;2.10;;;2.00;;
3922;SDS011;1976;51.694;6.256;2024-01-30T02:11:19;7.70;;;5.50;;
3922;SDS011;1976;51.694;6.256;2024-01-30T02:13:46;6.80;;;4.20;;
3922;SDS011;1976;51.694;6.256;2024-01-30T02:16:12;5.73;;;4.83;;
3922;SDS011;1976;51.694;6.256;2024-01-30T02:18:37;6.93;;;5.07;;
3922;SDS011;1976;51.694;6.256;2024-01-30T02:21:08;7.17;;;4.97;;
3922;SDS011;1976;51.694;6.256;2024-01-30T02:23:33;6.20;;;5.30;;
3922;SDS011;1976;51.694;6.256;2024-01-30T02:25:59;22.23;;;7.03;;
3922;SDS011;1976;51.694;6.256;2024-01-30T02:28:25;8.33;;;4.63;;
3922;SDS011;1976;51.694;6.256;2024-01-30T02:30:52;8.37;;;6.17;;
3922;SDS011;1976;51.694;6.256;2024-01-30T02:33:18;9.03;;;5.70;;
3922;SDS011;1976;51.694;6.256;2024-01-30T02:35:44;14.23;;;6.20;;
3922;SDS011;1976;51.694;6.256;2024-01-30T02:38:09;9.07;;;6.10;;
3922;SDS011;1976;51.694;6.256;2024-01-30T02:40:35;12.23;;;7.50;;
3922;SDS011;1976;51.694;6.256;2024-01-30T02:43:01;26.93;;;8.70;;
3922;SDS011;1976;51.694;6.256;2024-01-30T02:45:28;13.50;;;9.17;;
3922;SDS011;1976;51.694;6.256;2024-01-30T02:47:53;15.90;;;6.73;;
3922;SDS011;1976;51.694;6.256;2024-01-30T02:50:19;10.93;;;7.30;;
3922;SDS011;1976;51.694;6.256;2024-01-30T02:52:44;17.30;;;4.93;;
3922;SDS011;1976;51.694;6.256;2024-01-30T02:55:10;8.33;;;5.70;;
3922;SDS011;1976;51.694;6.256;2024-01-30T02:57:36;12.93;;;7.03;;
3922;SDS011;1976;51.694;6.256;2024-01-30T03:00:02;8.03;;;5.00;;
3922;SDS011;1976;51.694;6.256;2024-01-30T03:02:30;11.80;;;7.20;;
3922;SDS011;1976;51.694;6.256;2024-01-30T03:04:56;10.23;;;7.67;;
3922;SDS011;1976;51.694;6.256;2024-01-30T03:07:21;12.20;;;7.93;;
3922;SDS011;1976;51.694;6.256;2024-01-30T03:09:47;10.00;;;6.30;;
3922;SDS011;1976;51.694;6.256;2024-01-30T03:12:13;7.13;;;3.77;;
3922;SDS011;1976;51.694;6.256;2024-01-30T03:14:39;6.77;;;4.20;;
3922;SDS011;1976;51.694;6.256;2024-01-30T03:17:04;7.17;;;5.23;;
3922;SDS011;1976;51.694;6.256;2024-01-30T03:19:30;14.03;;;5.97;;
3922;SDS011;1976;51.694;6.256;2024-01-30T03:21:55;13.77;;;8.50;;
3922;SDS011;1976;51.694;6.256;2024-01-30T03:24:21;12.20;;;7.00;;
3922;SDS011;1976;51.694;6.256;2024-01-30T03:26:46;12.13;;;5.90;;
3922;SDS011;1976;51.694;6.256;2024-01-30T03:29:12;14.60;;;6.90;;
3922;SDS011;1976;51.694;6.256;2024-01-30T03:31:38;14.23;;;9.07;;
3922;SDS011;1976;51.694;6.256;2024-01-30T03:34:04;18.43;;;9.40;;
3922;SDS011;1976;51.694;6.256;2024-01-30T03:36:30;11.47;;;7.10;;
3922;SDS011;1976;51.694;6.256;2024-01-30T03:38:58;3.73;;;2.80;;
3922;SDS011;1976;51.694;6.256;2024-01-30T03:41:23;17.10;;;7.33;;
3922;SDS011;1976;51.694;6.256;2024-01-30T03:43:49;12.63;;;7.07;;
3922;SDS011;1976;51.694;6.256;2024-01-30T03:46:15;10.60;;;6.23;;
3922;SDS011;1976;51.694;6.256;2024-01-30T03:48:41;12.70;;;6.67;;
3922;SDS011;1976;51.694;6.256;2024-01-30T03:51:06;15.93;;;7.20;;
3922;SDS011;1976;51.694;6.256;2024-01-30T03:53:32;4.53;;;3.00;;
3922;SDS011;1976;51.694;6.256;2024-01-30T03:55:58;13.20;;;8.43;;
3922;SDS011;1976;51.694;6.256;2024-01-30T03:58:23;10.77;;;7.67;;
3922;SDS011;1976;51.694;6.256;2024-01-30T04:00:49;6.63;;;4.30;;
3922;SDS011;1976;51.694;6.256;2024-01-30T04:03:14;16.10;;;8.47;;
3922;SDS011;1976;51.694;6.256;2024-01-30T04:05:40;11.57;;;8.40;;
3922;SDS011;1976;51.694;6.256;2024-01-30T04:08:06;12.10;;;6.77;;
3922;SDS011;1976;51.694;6.256;2024-01-30T04:10:32;21.00;;;7.30;;
3922;SDS011;1976;51.694;6.256;2024-01-30T04:12:58;12.70;;;5.90;;
3922;SDS011;1976;51.694;6.256;2024-01-30T04:15:24;13.10;;;8.30;;
3922;SDS011;1976;51.694;6.256;2024-01-30T04:17:50;11.07;;;5.93;;
3922;SDS011;1976;51.694;6.256;2024-01-30T04:20:16;10.83;;;5.07;;
3922;SDS011;1976;51.694;6.256;2024-01-30T04:22:44;10.63;;;4.00;;
3922;SDS011;1976;51.694;6.256;2024-01-30T04:25:11;13.70;;;5.80;;
3922;SDS011;1976;51.694;6.256;2024-01-30T04:27:37;12.00;;;6.40;;
3922;SDS011;1976;51.694;6.256;2024-01-30T04:30:03;10.93;;;5.60;;
3922;SDS011;1976;51.694;6.256;2024-01-30T04:32:29;6.13;;;4.23;;
3922;SDS011;1976;51.694;6.256;2024-01-30T04:34:55;5.43;;;4.40;;
3922;SDS011;1976;51.694;6.256;2024-01-30T04:37:20;15.03;;;7.47;;
3922;SDS011;1976;51.694;6.256;2024-01-30T04:39:46;8.80;;;7.17;;
3922;SDS011;1976;51.694;6.256;2024-01-30T04:42:11;14.40;;;8.33;;
3922;SDS011;1976;51.694;6.256;2024-01-30T04:44:37;11.73;;;8.70;;
3922;SDS011;1976;51.694;6.256;2024-01-30T04:47:03;10.90;;;8.07;;
3922;SDS011;1976;51.694;6.256;2024-01-30T04:49:30;14.43;;;8.97;;
3922;SDS011;1976;51.694;6.256;2024-01-30T04:51:56;11.93;;;7.13;;
3922;SDS011;1976;51.694;6.256;2024-01-30T04:54:22;9.20;;;6.40;;
3922;SDS011;1976;51.694;6.256;2024-01-30T04:56:48;13.60;;;7.33;;
3922;SDS011;1976;51.694;6.256;2024-01-30T04:59:14;14.97;;;8.70;;
3922;SDS011;1976;51.694;6.256;2024-01-30T05:01:39;20.57;;;7.97;;
3922;SDS011;1976;51.694;6.256;2024-01-30T05:04:07;6.60;;;4.37;;
3922;SDS011;1976;51.694;6.256;2024-01-30T05:06:33;11.13;;;5.67;;
3922;SDS011;1976;51.694;6.256;2024-01-30T05:08:58;10.97;;;7.90;;
3922;SDS011;1976;51.694;6.256;2024-01-30T05:11:24;15.90;;;6.47;;
3922;SDS011;1976;51.694;6.256;2024-01-30T05:13:49;8.77;;;5.30;;
3922;SDS011;1976;51.694;6.256;2024-01-30T05:16:15;20.83;;;9.80;;
3922;SDS011;1976;51.694;6.256;2024-01-30T05:18:40;5.43;;;4.87;;
3922;SDS011;1976;51.694;6.256;2024-01-30T05:21:06;12.00;;;6.83;;
3922;SDS011;1976;51.694;6.256;2024-01-30T05:23:31;11.63;;;6.43;;
3922;SDS011;1976;51.694;6.256;2024-01-30T05:25:57;7.47;;;5.77;;
3922;SDS011;1976;51.694;6.256;2024-01-30T05:28:25;11.33;;;6.70;;
3922;SDS011;1976;51.694;6.256;2024-01-30T05:30:51;9.30;;;5.80;;
3922;SDS011;1976;51.694;6.256;2024-01-30T05:33:17;27.90;;;6.30;;
3922;SDS011;1976;51.694;6.256;2024-01-30T05:35:42;8.13;;;5.47;;
3922;SDS011;1976;51.694;6.256;2024-01-30T05:38:08;5.93;;;4.00;;
3922;SDS011;1976;51.694;6.256;2024-01-30T05:40:33;13.67;;;6.27;;
3922;SDS011;1976;51.694;6.256;2024-01-30T05:42:59;10.87;;;6.93;;
3922;SDS011;1976;51.694;6.256;2024-01-30T05:45:26;13.90;;;7.87;;
3922;SDS011;1976;51.694;6.256;2024-01-30T05:47:52;12.13;;;8.03;;
3922;SDS011;1976;51.694;6.256;2024-01-30T05:50:18;12.83;;;6.40;;
3922;SDS011;1976;51.694;6.256;2024-01-30T05:52:44;12.03;;;7.67;;
3922;SDS011;1976;51.694;6.256;2024-01-30T05:55:10;8.73;;;6.37;;
3922;SDS011;1976;51.694;6.256;2024-01-30T05:57:36;8.90;;;4.67;;
3922;SDS011;1976;51.694;6.256;2024-01-30T06:00:03;9.70;;;6.00;;
3922;SDS011;1976;51.694;6.256;2024-01-30T06:02:29;22.83;;;8.93;;
3922;SDS011;1976;51.694;6.256;2024-01-30T06:04:55;12.00;;;8.40;;
3922;SDS011;1976;51.694;6.256;2024-01-30T06:07:20;11.73;;;8.00;;
3922;SDS011;1976;51.694;6.256;2024-01-30T06:09:47;10.37;;;7.30;;
3922;SDS011;1976;51.694;6.256;2024-01-30T06:12:12;12.10;;;8.83;;
3922;SDS011;1976;51.694;6.256;2024-01-30T06:14:38;11.07;;;7.43;;
3922;SDS011;1976;51.694;6.256;2024-01-30T06:17:03;13.57;;;9.83;;
3922;SDS011;1976;51.694;6.256;2024-01-30T06:19:30;12.90;;;8.07;;
3922;SDS011;1976;51.694;6.256;2024-01-30T06:21:55;13.40;;;8.77;;
3922;SDS011;1976;51.694;6.256;2024-01-30T06:24:21;11.50;;;7.97;;
3922;SDS011;1976;51.694;6.256;2024-01-30T06:26:47;8.30;;;6.60;;
3922;SDS011;1976;51.694;6.256;2024-01-30T06:29:12;8.10;;;5.93;;
3922;SDS011;1976;51.694;6.256;2024-01-30T06:31:40;8.00;;;6.07;;
3922;SDS011;1976;51.694;6.256;2024-01-30T06:34:06;11.43;;;7.90;;
3922;SDS011;1976;51.694;6.256;2024-01-30T06:36:32;12.13;;;6.70;;
3922;SDS011;1976;51.694;6.256;2024-01-30T06:38:58;8.50;;;5.53;;
3922;SDS011;1976;51.694;6.256;2024-01-30T06:41:23;7.70;;;6.10;;
3922;SDS011;1976;51.694;6.256;2024-01-30T06:43:49;9.20;;;6.73;;
3922;SDS011;1976;51.694;6.256;2024-01-30T06:46:15;8.53;;;4.90;;
3922;SDS011;1976;51.694;6.256;2024-01-30T06:48:40;7.10;;;5.10;;
3922;SDS011;1976;51.694;6.256;2024-01-30T06:51:06;18.20;;;6.23;;
3922;SDS011;1976;51.694;6.256;2024-01-30T06:53:32;10.03;;;7.33;;
3922;SDS011;1976;51.694;6.256;2024-01-30T06:55:57;10.50;;;7.40;;
3922;SDS011;1976;51.694;6.256;2024-01-30T06:58:23;11.93;;;7.40;;
3922;SDS011;1976;51.694;6.256;2024-01-30T07:00:48;14.83;;;5.97;;
3922;SDS011;1976;51.694;6.256;2024-01-30T07:03:14;8.57;;;5.77;;
3922;SDS011;1976;51.694;6.256;2024-01-30T07:05:39;8.80;;;6.00;;
3922;SDS011;1976;51.694;6.256;2024-01-30T07:08:05;4.37;;;3.80;;
3922;SDS011;1976;51.694;6.256;2024-01-30T07:10:31;36.27;;;6.23;;
3922;SDS011;1976;51.694;6.256;2024-01-30T07:12:56;16.07;;;7.50;;
3922;SDS011;1976;51.694;6.256;2024-01-30T07:15:22;4.97;;;4.40;;
3922;SDS011;1976;51.694;6.256;2024-01-30T07:17:47;13.63;;;6.57;;
3922;SDS011;1976;51.694;6.256;2024-01-30T07:20:13;10.93;;;7.23;;
3922;SDS011;1976;51.694;6.256;2024-01-30T07:22:39;6.50;;;4.27;;
3922;SDS011;1976;51.694;6.256;2024-01-30T07:25:05;15.10;;;5.70;;
3922;SDS011;1976;51.694;6.256;2024-01-30T07:27:31;18.20;;;7.07;;
3922;SDS011;1976;51.694;6.256;2024-01-30T07:29:56;6.97;;;4.37;;
3922;SDS011;1976;51.694;6.256;2024-01-30T07:32:22;7.23;;;5.17;;
3922;SDS011;1976;51.694;6.256;2024-01-30T07:34:48;6.47;;;4.77;;
3922;SDS011;1976;51.694;6.256;2024-01-30T07:37:14;13.50;;;5.57;;
3922;SDS011;1976;51.694;6.256;2024-01-30T07:39:41;14.47;;;9.17;;
3922;SDS011;1976;51.694;6.256;2024-01-30T07:42:07;10.53;;;3.57;;
3922;SDS011;1976;51.694;6.256;2024-01-30T07:44:33;9.50;;;5.87;;
3922;SDS011;1976;51.694;6.256;2024-01-30T07:46:59;6.27;;;4.43;;
3922;SDS011;1976;51.694;6.256;2024-01-30T07:49:24;11.13;;;7.90;;
3922;SDS011;1976;51.694;6.256;2024-01-30T07:51:50;5.83;;;3.53;;
3922;SDS011;1976;51.694;6.256;2024-01-30T07:54:16;9.43;;;6.47;;
3922;SDS011;1976;51.694;6.256;2024-01-30T07:56:42;9.13;;;5.20;;
3922;SDS011;1976;51.694;6.256;2024-01-30T07:59:11;10.53;;;6.60;;
3922;SDS011;1976;51.694;6.256;2024-01-30T08:01:37;10.80;;;5.60;;
3922;SDS011;1976;51.694;6.256;2024-01-30T08:04:03;6.43;;;3.50;;
3922;SDS011;1976;51.694;6.256;2024-01-30T08:06:28;6.10;;;3.07;;
3922;SDS011;1976;51.694;6.256;2024-01-30T08:08:54;9.60;;;4.37;;
3922;SDS011;1976;51.694;6.256;2024-01-30T08:11:20;13.37;;;6.17;;
3922;SDS011;1976;51.694;6.256;2024-01-30T08:13:50;7.53;;;4.93;;
3922;SDS011;1976;51.694;6.256;2024-01-30T08:16:16;8.00;;;6.03;;
3922;SDS011;1976;51.694;6.256;2024-01-30T08:18:42;4.53;;;3.80;;
3922;SDS011;1976;51.694;6.256;2024-01-30T08:21:07;8.57;;;4.53;;
3922;SDS011;1976;51.694;6.256;2024-01-30T08:23:34;7.37;;;5.73;;
3922;SDS011;1976;51.694;6.256;2024-01-30T08:25:59;12.53;;;4.50;;
3922;SDS011;1976;51.694;6.256;2024-01-30T08:28:25;10.57;;;7.30;;
3922;SDS011;1976;51.694;6.256;2024-01-30T08:30:51;7.93;;;5.57;;
3922;SDS011;1976;51.694;6.256;2024-01-30T08:33:17;15.27;;;8.33;;
3922;SDS011;1976;51.694;6.256;2024-01-30T08:35:42;9.40;;;5.93;;
3922;SDS011;1976;51.694;6.256;2024-01-30T08:38:08;4.43;;;3.47;;
3922;SDS011;1976;51.694;6.256;2024-01-30T08:40:33;17.60;;;6.60;;
3922;SDS011;1976;51.694;6.256;2024-01-30T08:42:59;9.37;;;4.20;;
3922;SDS011;1976;51.694;6.256;2024-01-30T08:45:25;5.73;;;4.40;;
3922;SDS011;1976;51.694;6.256;2024-01-30T08:47:51;24.83;;;8.83;;
3922;SDS011;1976;51.694;6.256;2024-01-30T08:50:16;6.30;;;4.23;;
3922;SDS011;1976;51.694;6.256;2024-01-30T08:52:42;6.60;;;4.37;;
3922;SDS011;1976;51.694;6.256;2024-01-30T08:55:08;3.40;;;3.10;;
3922;SDS011;1976;51.694;6.256;2024-01-30T08:57:34;11.53;;;5.80;;
3922;SDS011;1976;51.694;6.256;2024-01-30T08:59:59;7.67;;;4.43;;
3922;SDS011;1976;51.694;6.256;2024-01-30T09:02:25;6.67;;;4.73;;
3922;SDS011;1976;51.694;6.256;2024-01-30T09:04:51;16.83;;;5.50;;
3922;SDS011;1976;51.694;6.256;2024-01-30T09:07:16;9.80;;;5.83;;
3922;SDS011;1976;51.694;6.256;2024-01-30T09:09:42;8.90;;;5.67;;
3922;SDS011;1976;51.694;6.256;2024-01-30T09:12:07;8.90;;;4.07;;
3922;SDS011;1976;51.694;6.256;2024-01-30T09:14:34;2.50;;;2.10;;
3922;SDS011;1976;51.694;6.256;2024-01-30T09:17:00;11.33;;;6.40;;
3922;SDS011;1976;51.694;6.256;2024-01-30T09:19:28;9.40;;;5.50;;
3922;SDS011;1976;51.694;6.256;2024-01-30T09:21:53;4.53;;;3.63;;
3922;SDS011;1976;51.694;6.256;2024-01-30T09:24:19;6.13;;;3.73;;
3922;SDS011;1976;51.694;6.256;2024-01-30T09:26:45;7.30;;;4.73;;
3922;SDS011;1976;51.694;6.256;2024-01-30T09:29:10;6.87;;;4.00;;
3922;SDS011;1976;51.694;6.256;2024-01-30T09:31:36;8.30;;;5.90;;
3922;SDS011;1976;51.694;6.256;2024-01-30T09:34:01;9.53;;;6.07;;
3922;SDS011;1976;51.694;6.256;2024-01-30T09:36:27;9.73;;;5.80;;
3922;SDS011;1976;51.694;6.256;2024-01-30T09:38:52;8.30;;;4.10;;
3922;SDS011;1976;51.694;6.256;2024-01-30T09:41:18;11.60;;;7.20;;
3922;SDS011;1976;51.694;6.256;2024-01-30T09:43:46;17.10;;;6.97;;
3922;SDS011;1976;51.694;6.256;2024-01-30T09:46:16;5.33;;;4.70;;
3922;SDS011;1976;51.694;6.256;2024-01-30T09:48:43;10.10;;;6.07;;
3922;SDS011;1976;51.694;6.256;2024-01-30T09:51:14;10.23;;;6.07;;
3922;SDS011;1976;51.694;6.256;2024-01-30T09:53:42;14.23;;;6.93;;
3922;SDS011;1976;51.694;6.256;2024-01-30T09:56:08;6.37;;;4.67;;
3922;SDS011;1976;51.694;6.256;2024-01-30T09:58:34;27.23;;;6.13;;
3922;SDS011;1976;51.694;6.256;2024-01-30T10:01:00;8.50;;;3.73;;
3922;SDS011;1976;51.694;6.256;2024-01-30T10:03:25;10.80;;;6.50;;
3922;SDS011;1976;51.694;6.256;2024-01-30T10:05:52;9.03;;;6.40;;
3922;SDS011;1976;51.694;6.256;2024-01-30T10:08:18;3.40;;;3.10;;
3922;SDS011;1976;51.694;6.256;2024-01-30T10:10:45;15.83;;;5.77;;
3922;SDS011;1976;51.694;6.256;2024-01-30T10:13:14;5.10;;;3.50;;
3922;SDS011;1976;51.694;6.256;2024-01-30T10:15:41;10.20;;;5.67;;
3922;SDS011;1976;51.694;6.256;2024-01-30T10:18:07;2.67;;;2.47;;
3922;SDS011;1976;51.694;6.256;2024-01-30T10:20:35;11.70;;;6.30;;
3922;SDS011;1976;51.694;6.256;2024-01-30T10:23:00;6.90;;;3.97;;
3922;SDS011;1976;51.694;6.256;2024-01-30T10:25:26;5.03;;;4.30;;
3922;SDS011;1976;51.694;6.256;2024-01-30T10:27:53;3.03;;;2.73;;
3922;SDS011;1976;51.694;6.256;2024-01-30T10:30:20;13.10;;;4.00;;
3922;SDS011;1976;51.694;6.256;2024-01-30T10:32:49;5.00;;;4.20;;
3922;SDS011;1976;51.694;6.256;2024-01-30T10:35:15;4.60;;;3.90;;
3922;SDS011;1976;51.694;6.256;2024-01-30T10:37:43;5.13;;;3.23;;
3922;SDS011;1976;51.694;6.256;2024-01-30T10:40:09;2.43;;;2.23;;
3922;SDS011;1976;51.694;6.256;2024-01-30T10:42:38;7.47;;;3.47;;
3922;SDS011;1976;51.694;6.256;2024-01-30T10:45:09;6.93;;;4.47;;
3922;SDS011;1976;51.694;6.256;2024-01-30T10:47:40;4.43;;;4.00;;
3922;SDS011;1976;51.694;6.256;2024-01-30T10:50:08;5.47;;;2.90;;
3922;SDS011;1976;51.694;6.256;2024-01-30T10:52:35;4.53;;;3.33;;
3922;SDS011;1976;51.694;6.256;2024-01-30T10:55:01;4.33;;;3.30;;
3922;SDS011;1976;51.694;6.256;2024-01-30T10:57:31;9.03;;;4.37;;
3922;SDS011;1976;51.694;6.256;2024-01-30T11:00:00;6.00;;;3.70;;
3922;SDS011;1976;51.694;6.256;2024-01-30T11:02:30;8.87;;;5.40;;
3922;SDS011;1976;51.694;6.256;2024-01-30T11:04:58;7.07;;;4.93;;
3922;SDS011;1976;51.694;6.256;2024-01-30T11:07:25;17.97;;;5.47;;
3922;SDS011;1976;51.694;6.256;2024-01-30T11:12:25;10.93;;;5.20;;
3922;SDS011;1976;51.694;6.256;2024-01-30T11:15:01;6.77;;;4.33;;
3922;SDS011;1976;51.694;6.256;2024-01-30T11:17:43;5.57;;;4.03;;
3922;SDS011;1976;51.694;6.256;2024-01-30T11:20:31;5.50;;;4.53;;
3922;SDS011;1976;51.694;6.256;2024-01-30T11:22:56;6.43;;;3.83;;
3922;SDS011;1976;51.694;6.256;2024-01-30T11:25:23;7.23;;;4.00;;
3922;SDS011;1976;51.694;6.256;2024-01-30T11:27:50;6.33;;;5.20;;
3922;SDS011;1976;51.694;6.256;2024-01-30T11:30:26;5.97;;;3.90;;
3922;SDS011;1976;51.694;6.256;2024-01-30T11:35:36;7.40;;;5.10;;
3922;SDS011;1976;51.694;6.256;2024-01-30T11:38:04;7.07;;;3.83;;
3922;SDS011;1976;51.694;6.256;2024-01-30T11:40:31;7.73;;;4.70;;
3922;SDS011;1976;51.694;6.256;2024-01-30T11:43:01;13.97;;;4.77;;
3922;SDS011;1976;51.694;6.256;2024-01-30T11:45:29;21.87;;;4.33;;
3922;SDS011;1976;51.694;6.256;2024-01-30T11:47:55;2.93;;;2.23;;
3922;SDS011;1976;51.694;6.256;2024-01-30T11:50:21;6.73;;;5.03;;
3922;SDS011;1976;51.694;6.256;2024-01-30T11:52:47;8.53;;;5.67;;
3922;SDS011;1976;51.694;6.256;2024-01-30T11:55:13;10.17;;;5.00;;
3922;SDS011;1976;51.694;6.256;2024-01-30T11:57:39;5.60;;;3.10;;
3922;SDS011;1976;51.694;6.256;2024-01-30T12:00:05;15.50;;;6.50;;
3922;SDS011;1976;51.694;6.256;2024-01-30T12:02:39;9.00;;;4.10;;
3922;SDS011;1976;51.694;6.256;2024-01-30T12:05:08;3.73;;;2.90;;
3922;SDS011;1976;51.694;6.256;2024-01-30T12:07:34;6.27;;;4.07;;
3922;SDS011;1976;51.694;6.256;2024-01-30T12:10:00;13.37;;;5.80;;
3922;SDS011;1976;51.694;6.256;2024-01-30T12:12:26;12.73;;;3.70;;
3922;SDS011;1976;51.694;6.256;2024-01-30T12:14:52;6.73;;;5.13;;
3922;SDS011;1976;51.694;6.256;2024-01-30T12:17:31;6.93;;;4.50;;
3922;SDS011;1976;51.694;6.256;2024-01-30T12:20:04;7.60;;;3.87;;
3922;SDS011;1976;51.694;6.256;2024-01-30T12:22:32;10.40;;;4.37;;
3922;SDS011;1976;51.694;6.256;2024-01-30T12:25:02;9.37;;;6.40;;
3922;SDS011;1976;51.694;6.256;2024-01-30T12:27:29;9.40;;;5.27;;
3922;SDS011;1976;51.694;6.256;2024-01-30T12:29:55;7.30;;;3.93;;
3922;SDS011;1976;51.694;6.256;2024-01-30T12:32:23;16.30;;;6.70;;
3922;SDS011;1976;51.694;6.256;2024-01-30T12:34:48;4.10;;;3.50;;
3922;SDS011;1976;51.694;6.256;2024-01-30T12:37:14;10.87;;;5.50;;
3922;SDS011;1976;51.694;6.256;2024-01-30T12:39:44;11.50;;;5.07;;
3922;SDS011;1976;51.694;6.256;2024-01-30T12:42:10;6.20;;;4.70;;
3922;SDS011;1976;51.694;6.256;2024-01-30T12:44:36;7.77;;;4.30;;
3922;SDS011;1976;51.694;6.256;2024-01-30T12:47:04;11.23;;;5.80;;
3922;SDS011;1976;51.694;6.256;2024-01-30T12:49:30;16.07;;;6.37;;
3922;SDS011;1976;51.694;6.256;2024-01-30T12:51:56;13.50;;;4.60;;
3922;SDS011;1976;51.694;6.256;2024-01-30T12:54:22;4.57;;;3.40;;
3922;SDS011;1976;51.694;6.256;2024-01-30T12:56:48;13.60;;;5.93;;
3922;SDS011;1976;51.694;6.256;2024-01-30T12:59:13;6.27;;;3.87;;
3922;SDS011;1976;51.694;6.256;2024-01-30T13:01:39;20.57;;;5.10;;
3922;SDS011;1976;51.694;6.256;2024-01-30T13:04:05;7.60;;;5.07;;
3922;SDS011;1976;51.694;6.256;2024-01-30T13:06:30;4.87;;;3.83;;
3922;SDS011;1976;51.694;6.256;2024-01-30T13:08:56;7.87;;;5.03;;
3922;SDS011;1976;51.694;6.256;2024-01-30T13:11:21;6.73;;;4.50;;
3922;SDS011;1976;51.694;6.256;2024-01-30T13:13:47;7.00;;;5.27;;
3922;SDS011;1976;51.694;6.256;2024-01-30T13:16:13;4.67;;;3.53;;
3922;SDS011;1976;51.694;6.256;2024-01-30T13:18:38;5.47;;;3.93;;
3922;SDS011;1976;51.694;6.256;2024-01-30T13:21:04;5.63;;;3.80;;
3922;SDS011;1976;51.694;6.256;2024-01-30T13:23:29;7.30;;;5.07;;
3922;SDS011;1976;51.694;6.256;2024-01-30T13:25:55;3.87;;;3.47;;
3922;SDS011;1976;51.694;6.256;2024-01-30T13:28:23;9.13;;;4.97;;
3922;SDS011;1976;51.694;6.256;2024-01-30T13:30:50;5.97;;;4.13;;
3922;SDS011;1976;51.694;6.256;2024-01-30T13:33:16;5.67;;;2.90;;
3922;SDS011;1976;51.694;6.256;2024-01-30T13:35:42;7.13;;;4.07;;
3922;SDS011;1976;51.694;6.256;2024-01-30T13:38:08;5.97;;;3.90;;
3922;SDS011;1976;51.694;6.256;2024-01-30T13:40:34;5.03;;;3.50;;
3922;SDS011;1976;51.694;6.256;2024-01-30T13:42:59;2.53;;;2.33;;
3922;SDS011;1976;51.694;6.256;2024-01-30T13:45:25;4.80;;;2.53;;
3922;SDS011;1976;51.694;6.256;2024-01-30T13:47:50;3.50;;;2.60;;
3922;SDS011;1976;51.694;6.256;2024-01-30T13:50:16;3.80;;;2.63;;
3922;SDS011;1976;51.694;6.256;2024-01-30T13:52:42;2.10;;;1.73;;
3922;SDS011;1976;51.694;6.256;2024-01-30T13:55:08;6.47;;;2.33;;
3922;SDS011;1976;51.694;6.256;2024-01-30T13:57:35;2.00;;;1.20;;
3922;SDS011;1976;51.694;6.256;2024-01-30T14:00:02;7.37;;;3.63;;
3922;SDS011;1976;51.694;6.256;2024-01-30T14:02:31;1.40;;;1.30;;
3922;SDS011;1976;51.694;6.256;2024-01-30T14:04:57;5.43;;;1.27;;
3922;SDS011;1976;51.694;6.256;2024-01-30T14:07:22;3.70;;;1.70;;
3922;SDS011;1976;51.694;6.256;2024-01-30T14:09:48;5.07;;;1.50;;
3922;SDS011;1976;51.694;6.256;2024-01-30T14:12:14;2.80;;;1.20;;
3922;SDS011;1976;51.694;6.256;2024-01-30T14:14:40;2.10;;;1.23;;
3922;SDS011;1976;51.694;6.256;2024-01-30T14:17:05;1.73;;;1.53;;
3922;SDS011;1976;51.694;6.256;2024-01-30T14:19:34;3.33;;;1.50;;
3922;SDS011;1976;51.694;6.256;2024-01-30T14:22:03;1.40;;;1.17;;
3922;SDS011;1976;51.694;6.256;2024-01-30T14:24:29;2.10;;;1.40;;
3922;SDS011;1976;51.694;6.256;2024-01-30T14:26:55;1.40;;;1.30;;
3922;SDS011;1976;51.694;6.256;2024-01-30T14:29:20;1.60;;;1.40;;
3922;SDS011;1976;51.694;6.256;2024-01-30T14:31:46;1.70;;;1.47;;
3922;SDS011;1976;51.694;6.256;2024-01-30T14:34:11;3.03;;;1.40;;
3922;SDS011;1976;51.694;6.256;2024-01-30T14:36:37;2.37;;;1.47;;
3922;SDS011;1976;51.694;6.256;2024-01-30T14:39:03;1.23;;;1.13;;
3922;SDS011;1976;51.694;6.256;2024-01-30T14:41:29;6.17;;;1.40;;
3922;SDS011;1976;51.694;6.256;2024-01-30T14:43:55;1.10;;;1.03;;
3922;SDS011;1976;51.694;6.256;2024-01-30T14:46:21;2.40;;;1.30;;
3922;SDS011;1976;51.694;6.256;2024-01-30T14:48:47;3.97;;;2.10;;
3922;SDS011;1976;51.694;6.256;2024-01-30T14:51:13;3.53;;;1.43;;
3922;SDS011;1976;51.694;6.256;2024-01-30T14:53:38;4.83;;;1.43;;
3922;SDS011;1976;51.694;6.256;2024-01-30T14:56:04;3.37;;;1.70;;
3922;SDS011;1976;51.694;6.256;2024-01-30T14:58:30;1.50;;;1.40;;
3922;SDS011;1976;51.694;6.256;2024-01-30T15:00:56;6.20;;;1.57;;
3922;SDS011;1976;51.694;6.256;2024-01-30T15:03:22;1.90;;;1.80;;
3922;SDS011;1976;51.694;6.256;2024-01-30T15:05:47;5.03;;;1.70;;
3922;SDS011;1976;51.694;6.256;2024-01-30T15:08:13;2.30;;;1.63;;
3922;SDS011;1976;51.694;6.256;2024-01-30T15:10:39;4.70;;;1.73;;